Time;durP1;ratioP1;P1;durP2;ratioP2;P2;SDS_P1;SDS_P2;PMS_P1;PMS_P2;Temp;Humidity;BMP_temperature;BMP_pressure;BME280_temperature;BME280_humidity;BME280_pressure;Samples;Min_cycle;Max_cycle;Signal;HPM_P1;HPM_P2
2021/07/25 00:00:09;;;;;;;2.20;2.10;;;21.10;99.90;;;21.37;83.36;100739.56;4935584;29;20103;-70
2021/07/25 00:02:37;;;;;;;6.80;6.40;;;21.10;99.90;;;21.22;83.01;100741.25;4935880;29;20043;-69
2021/07/25 00:05:10;;;;;;;2.25;2.15;;;21.00;99.90;;;21.09;83.38;100748.19;4939436;29;20140;-70
2021/07/25 00:07:38;;;;;;;2.60;2.50;;;20.80;99.90;;;21.09;84.02;100747.31;4939036;29;20055;-69
2021/07/25 00:10:09;;;;;;;2.20;2.10;;;20.80;99.90;;;20.94;83.98;100743.53;4938851;29;20460;-70
2021/07/25 00:12:37;;;;;;;;;;;20.70;99.90;;;20.93;84.17;100744.47;4939645;29;20048;-70
2021/07/25 00:15:09;;;;;;;2.03;1.92;;;20.60;99.90;;;20.89;84.86;100744.66;4938888;29;20376;-69
2021/07/25 00:17:37;;;;;;;2.42;2.33;;;20.60;99.90;;;20.25;85.33;100621.47;4939070;29;20075;-70
2021/07/25 00:20:08;;;;;;;2.70;2.60;;;20.60;99.90;;;21.00;85.37;100740.50;4938893;29;20107;-69
2021/07/25 00:22:40;;;;;;;2.28;2.17;;;20.60;99.90;;;21.01;85.39;100738.72;4939231;29;20051;-70
2021/07/25 00:25:12;;;;;;;2.80;2.70;;;20.60;99.90;;;20.84;85.46;100709.97;4938725;29;20048;-70
2021/07/25 00:27:42;;;;;;;2.28;2.17;;;20.60;99.90;;;21.00;85.43;100731.59;4938607;29;20047;-69
2021/07/25 00:30:14;;;;;;;3.78;3.58;;;20.60;99.90;;;21.01;85.48;100734.22;4938771;29;20044;-69
2021/07/25 00:32:42;;;;;;;2.70;2.60;;;20.60;99.90;;;21.00;85.63;100726.22;4938766;29;20091;-69
2021/07/25 00:35:11;;;;;;;2.10;2.00;;;20.70;99.90;;;21.00;85.79;100732.44;4921538;29;20102;-69
2021/07/25 00:37:43;;;;;;;2.42;2.33;;;20.60;99.90;;;21.05;85.85;100730.44;4938608;29;20058;-69
2021/07/25 00:40:19;;;;;;;2.40;2.30;;;20.70;99.90;;;21.07;85.71;100722.28;4939079;29;20044;-70
2021/07/25 00:42:47;;;;;;;2.65;2.55;;;20.70;99.90;;;21.08;85.69;100722.22;4921537;29;20111;-70
2021/07/25 00:45:17;;;;;;;2.65;2.55;;;20.70;99.90;;;21.08;85.69;100724.06;4938502;29;20468;-70
2021/07/25 00:47:47;;;;;;;2.58;2.47;;;20.70;99.90;;;21.12;86.03;100721.13;4938793;29;20066;-69
2021/07/25 00:50:17;;;;;;;2.47;2.38;;;20.70;99.90;;;20.90;85.45;100695.34;4938406;29;20099;-70
2021/07/25 00:52:45;;;;;;;3.15;3.05;;;20.70;99.90;;;21.00;85.24;100724.38;4938362;29;20070;-70
2021/07/25 00:55:15;;;;;;;2.50;2.40;;;20.60;99.90;;;21.01;85.94;100719.91;4937972;29;20077;-69
2021/07/25 00:57:43;;;;;;;2.60;2.50;;;20.70;99.90;;;21.06;86.08;100715.19;4938338;29;20107;-69
2021/07/25 01:00:18;;;;;;;4.60;4.40;;;20.70;99.90;;;21.11;86.32;100723.88;4938130;29;20069;-69
2021/07/25 01:03:00;;;;;;;2.30;2.20;;;20.70;99.90;;;21.12;86.13;100722.94;4938039;29;20087;-71
2021/07/25 01:05:44;;;;;;;2.35;2.25;;;20.70;99.90;;;21.13;85.95;100724.69;4921203;29;20102;-69
2021/07/25 01:08:24;;;;;;;3.30;3.20;;;20.80;99.90;;;21.12;85.74;100720.22;4938189;29;20052;-70
2021/07/25 01:10:54;;;;;;;3.08;2.97;;;20.70;99.90;;;21.12;85.73;100714.84;4938013;29;20051;-69
2021/07/25 01:13:27;;;;;;;2.22;2.13;;;20.70;99.90;;;21.09;85.85;100697.06;4937843;29;20107;-70
2021/07/25 01:16:00;;;;;;;4.72;4.53;;;20.80;99.90;;;21.13;85.83;100698.66;4938029;29;20095;-69
2021/07/25 01:18:29;;;;;;;2.60;2.50;;;20.80;99.90;;;21.13;85.86;100709.44;4937730;29;20050;-70
2021/07/25 01:21:01;;;;;;;2.22;2.13;;;20.80;99.90;;;21.18;85.57;100701.09;4937833;29;20071;-70
2021/07/25 01:23:30;;;;;;;2.40;2.30;;;20.80;99.90;;;21.15;85.22;100693.19;4937549;29;20051;-69
2021/07/25 01:26:01;;;;;;;2.63;2.53;;;20.80;99.90;;;21.15;85.58;100701.28;4920581;29;20110;-69
2021/07/25 01:28:31;;;;;;;;;;;20.80;99.90;;;21.17;85.58;100700.25;4937962;29;20062;-69
2021/07/25 01:31:03;;;;;;;2.50;2.40;;;20.80;99.90;;;21.17;85.56;100702.06;4937917;29;19922;-70
2021/07/25 01:33:37;;;;;;;2.20;2.10;;;20.80;99.90;;;21.15;85.82;100706.66;4920458;29;20533;-69
2021/07/25 01:36:07;;;;;;;2.20;2.10;;;20.80;99.90;;;21.15;85.88;100703.97;4937338;29;20047;-70
2021/07/25 01:38:35;;;;;;;2.33;2.22;;;20.90;99.90;;;21.09;85.94;100707.84;4937247;29;20111;-69
2021/07/25 01:41:06;;;;;;;2.72;2.63;;;20.80;99.90;;;20.66;85.69;100623.00;4937513;29;20063;-69
2021/07/25 01:43:36;;;;;;;2.72;2.63;;;20.70;99.90;;;21.15;85.79;100701.28;4937435;29;20111;-69
2021/07/25 01:46:06;;;;;;;2.30;2.20;;;20.80;99.90;;;21.03;85.77;100667.78;4937390;29;20059;-69
2021/07/25 01:48:36;;;;;;;2.42;2.33;;;20.80;99.90;;;20.99;86.08;100679.63;4937033;29;20043;-70
2021/07/25 01:51:06;;;;;;;2.20;2.10;;;20.70;99.90;;;20.89;86.94;100697.16;4937197;29;20443;-69
2021/07/25 01:53:35;;;;;;;2.58;2.47;;;20.60;99.90;;;20.98;87.02;100687.75;4937198;29;20048;-70
2021/07/25 01:56:04;;;;;;;2.20;2.10;;;20.60;99.90;;;21.10;86.83;100690.72;4937147;29;20079;-69
2021/07/25 01:58:32;;;;;;;2.30;2.20;;;20.70;99.90;;;21.13;86.31;100687.91;4937391;29;20051;-70
2021/07/25 02:01:01;;;;;;;2.35;2.25;;;20.80;99.90;;;21.15;86.33;100693.19;4936776;29;20401;-69
2021/07/25 02:03:30;;;;;;;4.65;4.45;;;20.80;99.90;;;21.06;85.93;100670.31;4936908;29;20095;-70
2021/07/25 02:05:58;;;;;;;2.20;2.10;;;20.80;99.90;;;21.20;85.76;100694.69;4937025;29;20048;-70
2021/07/25 02:08:28;;;;;;;2.45;2.35;;;20.90;99.90;;;21.23;85.96;100688.31;4937012;29;20043;-69
2021/07/25 02:10:56;;;;;;;2.30;2.20;;;20.90;99.90;;;21.21;85.61;100676.75;4936801;29;20058;-69
2021/07/25 02:13:25;;;;;;;2.22;2.13;;;20.90;99.90;;;21.27;85.57;100684.50;4920078;29;20339;-70
2021/07/25 02:15:54;;;;;;;2.50;2.40;;;20.90;99.90;;;21.27;85.21;100677.28;4936740;29;20453;-70
2021/07/25 02:18:24;;;;;;;;;;;20.90;99.90;;;21.16;85.16;100668.03;4937511;29;20075;-70
2021/07/25 02:20:52;;;;;;;3.92;3.63;;;20.90;99.90;;;21.14;85.31;100678.00;4936449;29;19923;-70
2021/07/25 02:23:21;;;;;;;2.72;2.63;;;20.80;99.90;;;21.09;85.63;100677.38;4936718;29;20051;-69
2021/07/25 02:25:51;;;;;;;2.45;2.35;;;20.70;99.90;;;20.90;85.94;100668.44;4935881;29;20527;-69
2021/07/25 02:28:19;;;;;;;2.60;2.50;;;20.60;99.90;;;21.03;85.89;100659.72;4936683;29;20044;-69
2021/07/25 02:30:47;;;;;;;2.75;2.65;;;20.70;99.90;;;21.15;85.88;100661.78;4936428;29;20079;-69
2021/07/25 02:33:16;;;;;;;2.55;2.45;;;20.80;99.90;;;21.20;85.97;100666.91;4936234;29;20051;-70
2021/07/25 02:35:44;;;;;;;2.67;2.58;;;20.90;99.90;;;21.22;86.07;100667.72;4936403;29;20056;-69
2021/07/25 02:38:13;;;;;;;2.63;2.53;;;20.90;99.90;;;21.23;86.01;100667.66;4936482;29;20043;-70
2021/07/25 02:40:41;;;;;;;2.47;2.38;;;20.90;99.90;;;21.13;86.02;100654.75;4936219;29;20090;-71
2021/07/25 02:43:11;;;;;;;2.40;2.30;;;20.90;99.90;;;21.24;85.26;100674.75;4936474;29;20047;-70
2021/07/25 02:45:39;;;;;;;3.23;3.03;;;21.00;99.90;;;21.13;85.03;100658.31;4936159;29;20553;-69
2021/07/25 02:48:07;;;;;;;2.40;2.30;;;21.00;99.90;;;21.26;84.79;100678.25;4936345;29;20446;-70
2021/07/25 02:50:36;;;;;;;2.30;2.20;;;21.00;99.90;;;21.26;84.46;100672.88;4936039;29;20043;-69
2021/07/25 02:53:04;;;;;;;2.88;2.78;;;21.00;99.90;;;21.29;84.28;100680.75;4936283;29;20095;-70
2021/07/25 02:55:38;;;;;;;2.40;2.30;;;21.00;99.90;;;21.30;84.22;100684.34;4936181;29;20095;-70
2021/07/25 02:58:06;;;;;;;3.38;3.17;;;21.00;99.90;;;21.29;84.14;100688.00;4936093;29;20051;-69
2021/07/25 03:00:36;;;;;;;2.65;2.55;;;21.00;99.90;;;21.28;84.00;100683.53;4936267;29;20151;-70
2021/07/25 03:03:04;;;;;;;2.72;2.63;;;21.00;99.90;;;21.22;83.92;100665.91;4936160;29;20073;-70
2021/07/25 03:05:33;;;;;;;7.95;7.38;;;20.90;99.90;;;21.23;84.02;100672.16;4936448;29;20073;-70
2021/07/25 03:08:01;;;;;;;2.80;2.60;;;20.90;99.90;;;21.18;83.92;100680.47;4936472;29;20118;-70
2021/07/25 03:10:30;;;;;;;2.47;2.38;;;20.90;99.90;;;20.98;84.14;100637.50;4936092;29;20067;-70
2021/07/25 03:12:58;;;;;;;2.60;2.50;;;20.80;99.90;;;21.14;84.20;100668.09;4919023;29;20095;-70
2021/07/25 03:15:27;;;;;;;4.22;3.95;;;20.80;99.90;;;20.68;84.13;100596.94;4935759;29;20486;-70
2021/07/25 03:17:57;;;;;;;2.47;2.38;;;20.80;99.90;;;21.07;84.13;100668.50;4936015;29;20077;-70
2021/07/25 03:20:26;;;;;;;2.97;2.88;;;20.70;99.90;;;21.07;84.31;100680.13;4936243;29;20131;-70
2021/07/25 03:22:54;;;;;;;2.55;2.45;;;20.70;99.90;;;20.87;84.09;100641.69;4935700;29;20039;-70
2021/07/25 03:25:23;;;;;;;2.80;2.70;;;20.70;99.90;;;21.04;84.23;100668.66;4935710;29;20492;-70
2021/07/25 03:27:51;;;;;;;2.45;2.35;;;20.70;99.90;;;20.61;84.13;100598.16;4935962;29;20111;-70
2021/07/25 03:30:20;;;;;;;2.42;2.33;;;20.70;99.90;;;21.03;84.04;100658.84;4936133;29;20541;-70
2021/07/25 03:32:48;;;;;;;2.40;2.30;;;20.70;99.90;;;21.05;84.06;100662.31;4935770;29;20087;-70
2021/07/25 03:35:18;;;;;;;2.25;2.15;;;20.70;99.90;;;21.11;83.91;100653.94;4918705;29;20048;-70
2021/07/25 03:37:46;;;;;;;2.78;2.67;;;20.80;99.90;;;21.13;83.97;100657.44;4938346;29;20051;-70
2021/07/25 03:40:16;;;;;;;2.38;2.28;;;20.70;99.90;;;21.15;83.85;100650.16;4939372;29;20051;-69
2021/07/25 03:42:44;;;;;;;2.28;2.17;;;20.80;99.90;;;21.16;83.46;100638.44;4939338;29;20044;-70
2021/07/25 03:45:12;;;;;;;2.25;2.15;;;20.80;99.90;;;20.72;83.36;100559.13;4939544;29;20047;-70
2021/07/25 03:47:41;;;;;;;2.30;2.20;;;20.80;99.90;;;21.22;83.49;100635.44;4939792;29;20569;-70
2021/07/25 03:50:10;;;;;;;2.38;2.28;;;20.90;99.90;;;21.17;83.83;100641.06;4939477;29;20043;-70
2021/07/25 03:52:40;;;;;;;2.40;2.30;;;20.90;99.90;;;21.18;84.18;100639.22;4939516;29;20047;-70
2021/07/25 03:55:10;;;;;;;3.53;3.33;;;20.80;99.90;;;20.94;84.45;100613.56;4939380;29;20075;-70
2021/07/25 03:57:39;;;;;;;1.92;1.83;;;20.70;99.90;;;21.02;84.58;100625.69;4939380;29;20048;-70
2021/07/25 04:00:09;;;;;;;2.65;2.55;;;20.70;99.90;;;21.14;84.49;100640.31;4939324;29;20043;-70
2021/07/25 04:02:37;;;;;;;3.95;3.65;;;20.70;99.90;;;21.13;84.24;100644.84;4939157;29;20099;-70
2021/07/25 04:05:08;;;;;;;2.30;2.20;;;20.80;99.90;;;21.13;84.35;100639.47;4939257;29;20043;-70
2021/07/25 04:07:36;;;;;;;2.20;2.10;;;20.80;99.90;;;21.13;83.71;100633.22;4939167;29;20099;-70
2021/07/25 04:10:08;;;;;;;2.63;2.53;;;20.80;99.90;;;21.16;83.03;100638.44;4938859;29;20118;-69
2021/07/25 04:12:36;;;;;;;2.13;2.03;;;20.80;99.90;;;21.14;82.64;100645.72;4939442;29;20052;-70
2021/07/25 04:15:07;;;;;;;2.20;2.10;;;20.90;99.90;;;21.15;82.04;100642.97;4938868;29;20052;-70
2021/07/25 04:17:35;;;;;;;2.45;2.35;;;20.80;99.90;;;21.07;82.04;100642.47;4939033;29;20035;-70
2021/07/25 04:20:05;;;;;;;4.68;4.45;;;20.80;99.90;;;21.15;82.00;100647.47;4921844;29;20056;-70
2021/07/25 04:22:37;;;;;;;2.40;2.30;;;20.80;99.90;;;21.21;82.32;100645.34;4921906;29;20106;-70
2021/07/25 04:25:09;;;;;;;2.35;2.25;;;20.90;99.90;;;20.72;82.11;100560.00;4938675;29;20054;-70
2021/07/25 04:27:40;;;;;;;2.58;2.47;;;20.80;99.90;;;21.05;82.33;100630.03;4938636;29;20051;-70
2021/07/25 04:30:10;;;;;;;2.45;2.35;;;20.70;99.90;;;21.04;82.37;100633.69;4938848;29;20058;-70
2021/07/25 04:32:39;;;;;;;2.63;2.53;;;20.70;99.90;;;21.01;82.15;100625.78;4938711;29;20048;-70
2021/07/25 04:35:10;;;;;;;2.30;2.20;;;20.70;99.90;;;21.04;81.65;100633.69;4938774;29;20091;-70
2021/07/25 04:37:48;;;;;;;2.20;2.10;;;20.70;99.90;;;20.86;81.64;100623.84;4921615;29;20063;-70
2021/07/25 04:40:23;;;;;;;2.80;2.70;;;20.70;99.90;;;20.89;81.69;100629.03;4938798;29;20043;-70
2021/07/25 04:42:56;;;;;;;2.10;2.00;;;20.60;99.90;;;20.82;81.43;100638.38;4938568;29;20040;-70
2021/07/25 04:45:31;;;;;;;1.90;1.80;;;20.60;99.90;;;20.83;81.56;100635.59;4938382;29;20106;-70
2021/07/25 04:48:09;;;;;;;2.35;2.25;;;20.50;99.90;;;20.82;81.44;100639.25;4938479;29;20051;-70
2021/07/25 04:50:43;;;;;;;2.65;2.55;;;20.50;99.90;;;20.84;81.23;100637.34;4938293;29;20044;-70
2021/07/25 04:53:23;;;;;;;2.50;2.40;;;20.60;99.90;;;20.85;81.06;100636.41;4921429;29;20594;-70
2021/07/25 04:55:59;;;;;;;2.95;2.85;;;20.60;99.90;;;20.70;80.80;100612.97;4938334;29;20043;-70
2021/07/25 04:58:40;;;;;;;2.63;2.53;;;20.60;99.90;;;20.79;80.91;100636.69;4938096;29;20044;-70
2021/07/25 05:01:14;;;;;;;2.65;2.55;;;20.60;99.90;;;20.74;80.79;100646.81;4937961;29;20067;-70
2021/07/25 05:03:43;;;;;;;2.45;2.35;;;20.50;99.90;;;20.64;80.84;100650.91;4920862;29;20502;-70
2021/07/25 05:06:15;;;;;;;2.67;2.58;;;20.50;99.90;;;20.60;81.29;100639.44;4921103;29;20047;-70
2021/07/25 05:08:45;;;;;;;2.38;2.28;;;20.40;99.90;;;20.60;81.43;100644.81;4938061;29;20052;-70
2021/07/25 05:11:18;;;;;;;2.28;2.17;;;20.40;99.90;;;20.67;81.41;100646.25;4937872;29;20044;-70
2021/07/25 05:13:49;;;;;;;2.40;2.30;;;20.40;99.90;;;20.75;81.26;100653.09;4938086;29;20390;-70
2021/07/25 05:16:28;;;;;;;2.42;2.33;;;20.50;99.90;;;20.68;81.23;100625.63;4937960;29;20394;-70
2021/07/25 05:19:14;;;;;;;2.20;2.10;;;20.50;99.90;;;20.72;80.98;100621.84;4937917;29;20048;-70
2021/07/25 05:21:50;;;;;;;2.05;1.95;;;20.60;99.90;;;20.89;80.78;100646.06;4937955;29;20055;-70
2021/07/25 05:24:23;;;;;;;3.85;3.65;;;20.60;99.90;;;20.95;80.76;100653.81;4937911;29;20052;-70
2021/07/25 05:26:55;;;;;;;2.38;2.28;;;20.70;99.90;;;21.00;80.45;100665.19;4937860;29;20393;-70
2021/07/25 05:29:25;;;;;;;2.50;2.40;;;20.70;99.90;;;20.93;80.52;100662.91;4937703;29;20449;-70
2021/07/25 05:31:54;;;;;;;2.60;2.50;;;20.70;99.90;;;21.02;80.35;100654.44;4920585;29;20051;-70
2021/07/25 05:34:22;;;;;;;2.40;2.30;;;20.70;99.90;;;21.07;80.31;100650.53;4937701;29;20047;-70
2021/07/25 05:36:51;;;;;;;2.50;2.40;;;20.70;99.90;;;21.04;80.23;100644.47;4920608;29;20406;-70
2021/07/25 05:39:19;;;;;;;2.72;2.63;;;20.70;99.90;;;21.05;80.58;100649.75;4920542;29;20122;-70
2021/07/25 05:41:48;;;;;;;2.47;2.38;;;20.70;99.90;;;21.17;81.25;100656.31;4937267;29;20453;-70
2021/07/25 05:44:17;;;;;;;2.50;2.40;;;20.80;99.90;;;21.27;80.59;100660.28;4937409;29;20109;-71
2021/07/25 05:46:46;;;;;;;2.70;2.60;;;20.90;99.90;;;21.35;80.80;100661.63;4937263;29;20081;-71
2021/07/25 05:49:14;;;;;;;2.42;2.33;;;21.10;99.90;;;21.38;80.62;100656.09;4937366;29;20074;-70
2021/07/25 05:51:43;;;;;;;2.42;2.33;;;21.20;99.90;;;21.32;80.30;100634.00;4937361;29;20079;-70
2021/07/25 05:54:14;;;;;;;2.42;2.33;;;21.20;99.90;;;21.50;80.07;100659.97;4937178;29;20048;-71
2021/07/25 05:56:42;;;;;;;2.55;2.45;;;21.30;99.90;;;21.64;80.63;100667.31;4937294;29;20051;-70
2021/07/25 05:59:12;;;;;;;2.40;2.30;;;21.40;99.90;;;21.69;80.49;100659.84;4919506;29;20054;-70
2021/07/25 06:01:41;;;;;;;2.20;2.10;;;21.40;99.90;;;21.62;80.27;100662.00;4936122;29;20040;-70
2021/07/25 06:04:10;;;;;;;2.70;2.60;;;21.40;99.90;;;21.63;79.97;100658.34;4937136;29;20051;-70
2021/07/25 06:06:38;;;;;;;2.40;2.30;;;21.40;99.90;;;21.69;79.66;100663.41;4920046;29;20047;-70
2021/07/25 06:09:07;;;;;;;2.55;2.45;;;21.40;99.90;;;21.75;79.47;100667.59;4936643;29;20048;-70
2021/07/25 06:11:36;;;;;;;2.17;2.08;;;21.50;99.90;;;21.81;79.17;100664.63;4936826;29;20050;-70
2021/07/25 06:14:04;;;;;;;2.40;2.30;;;21.50;99.90;;;21.81;79.51;100664.63;4919760;29;20062;-69
2021/07/25 06:16:33;;;;;;;9.00;6.97;;;21.50;99.90;;;21.45;79.40;100590.22;4936483;29;20142;-70
2021/07/25 06:19:03;;;;;;;2.78;2.67;;;21.60;99.90;;;21.94;79.93;100663.88;4919688;29;20091;-70
2021/07/25 06:21:31;;;;;;;2.05;1.95;;;21.70;99.90;;;22.07;80.34;100669.44;4936718;29;20055;-70
2021/07/25 06:24:00;;;;;;;2.25;2.15;;;21.70;99.90;;;22.17;79.97;100663.47;4936831;29;20461;-70
2021/07/25 06:26:30;;;;;;;2.13;2.03;;;21.90;99.90;;;22.19;79.47;100671.47;4936377;29;20056;-70
2021/07/25 06:28:58;;;;;;;3.10;3.00;;;21.90;99.90;;;22.35;79.57;100665.16;4936398;29;20066;-70
2021/07/25 06:31:26;;;;;;;2.28;2.17;;;22.10;99.90;;;22.25;79.40;100665.75;4936669;29;20051;-70
2021/07/25 06:34:03;;;;;;;2.33;2.22;;;22.00;99.90;;;22.44;79.49;100669.16;4919229;29;20139;-70
2021/07/25 06:36:32;;;;;;;2.10;2.00;;;22.20;99.90;;;22.56;80.27;100659.50;4936331;29;20044;-70
2021/07/25 06:39:00;;;;;;;3.45;2.40;;;22.30;99.90;;;22.73;80.42;100664.81;4936322;29;20067;-70
2021/07/25 06:41:29;;;;;;;2.30;2.20;;;22.50;99.90;;;22.86;79.33;100666.72;4936843;29;20103;-70
2021/07/25 06:44:00;;;;;;;2.17;2.08;;;22.60;99.90;;;22.98;78.66;100668.72;4936579;29;20107;-70
2021/07/25 06:46:28;;;;;;;2.47;2.38;;;22.70;99.90;;;23.08;79.18;100669.03;4936666;29;20103;-70
2021/07/25 06:48:57;;;;;;;2.75;2.65;;;22.80;99.90;;;23.12;79.12;100651.69;4936603;29;20051;-70
2021/07/25 06:51:27;;;;;;;2.30;2.20;;;23.00;99.90;;;23.31;77.90;100676.66;4936065;29;20051;-70
2021/07/25 06:53:59;;;;;;;2.83;2.72;;;23.10;99.90;;;23.41;77.54;100677.88;4919287;29;20397;-71
2021/07/25 06:56:28;;;;;;;2.28;2.17;;;23.20;99.90;;;23.51;77.30;100672.78;4936345;29;20450;-70
2021/07/25 06:58:56;;;;;;;2.08;1.98;;;23.30;99.90;;;23.64;77.59;100658.44;4936073;29;20371;-70
2021/07/25 07:01:27;;;;;;;2.30;2.20;;;23.40;99.90;;;23.83;76.99;100677.94;4919291;29;20138;-70
2021/07/25 07:03:56;;;;;;;1.98;1.88;;;23.60;99.90;;;23.89;77.39;100664.03;4936049;29;20413;-70
2021/07/25 07:06:26;;;;;;;2.30;2.20;;;23.70;99.90;;;23.94;76.47;100663.78;4936134;29;20067;-70
2021/07/25 07:08:54;;;;;;;2.30;2.20;;;23.70;99.90;;;24.12;76.54;100660.78;4919219;29;20130;-70
2021/07/25 07:11:27;;;;;;;2.10;2.03;;;23.90;99.90;;;24.24;75.25;100667.25;4936697;29;20347;-70
2021/07/25 07:13:56;;;;;;;2.67;2.58;;;24.00;99.90;;;24.39;74.37;100668.13;4942575;29;20454;-70
2021/07/25 07:16:25;;;;;;;2.03;1.92;;;24.20;99.90;;;24.49;74.01;100670.13;4942222;29;20626;-70
2021/07/25 07:18:55;;;;;;;2.13;2.03;;;24.30;99.90;;;24.58;73.51;100668.66;4942270;29;20040;-70
2021/07/25 07:21:23;;;;;;;2.10;2.00;;;24.40;99.90;;;24.65;74.30;100668.16;4942914;29;20063;-71
2021/07/25 07:23:54;;;;;;;2.42;2.33;;;24.40;99.90;;;24.66;74.06;100667.16;4942742;29;20134;-71
2021/07/25 07:26:25;;;;;;;1.95;1.90;;;24.50;99.90;;;24.66;73.45;100666.31;4942506;29;20086;-71
2021/07/25 07:28:54;;;;;;;2.45;2.35;;;24.40;99.90;;;24.26;73.33;100607.66;4942686;29;20060;-71
2021/07/25 07:31:25;;;;;;;1.73;1.73;;;24.40;99.90;;;24.66;73.35;100669.03;4942865;29;20044;-71
2021/07/25 07:33:54;;;;;;;2.30;2.20;;;24.40;99.90;;;24.79;74.48;100670.88;4942573;29;20047;-71
2021/07/25 07:36:23;;;;;;;2.17;2.08;;;24.60;99.90;;;25.01;74.35;100676.56;4942694;29;20039;-71
2021/07/25 07:38:52;;;;;;;2.28;2.17;;;24.80;99.90;;;24.61;73.20;100593.56;4925217;29;20569;-71
2021/07/25 07:41:21;;;;;;;10.25;3.00;;;24.90;99.90;;;25.21;73.07;100675.22;4942481;29;20054;-72
2021/07/25 07:43:49;;;;;;;1.50;1.50;;;25.00;99.90;;;25.26;72.66;100651.41;4942515;29;20075;-71
2021/07/25 07:46:18;;;;;;;1.75;1.75;;;25.20;99.90;;;25.57;72.10;100675.44;4942453;29;20044;-71
2021/07/25 07:48:46;;;;;;;1.80;1.80;;;25.40;99.90;;;25.78;71.07;100660.38;4942196;29;20177;-72
2021/07/25 07:51:15;;;;;;;1.70;1.70;;;25.60;99.90;;;25.87;69.88;100670.59;4942245;29;20044;-71
2021/07/25 07:53:43;;;;;;;3.17;3.00;;;25.80;99.90;;;25.94;69.46;100671.88;4942218;29;20102;-71
2021/07/25 07:56:13;;;;;;;1.98;1.90;;;25.80;99.90;;;25.81;68.26;100660.19;4941201;29;20126;-71
2021/07/25 07:58:41;;;;;;;1.80;1.80;;;25.80;99.90;;;25.99;68.95;100682.41;4941814;29;20040;-71
2021/07/25 08:01:10;;;;;;;1.83;1.83;;;25.80;99.90;;;26.05;68.43;100670.25;4942070;29;20299;-71
2021/07/25 08:03:38;;;;;;;1.73;1.73;;;25.90;99.90;;;26.12;66.86;100687.84;4941562;29;20043;-71
2021/07/25 08:06:07;;;;;;;1.60;1.60;;;26.00;99.90;;;26.13;66.94;100681.47;4924817;29;20051;-71
2021/07/25 08:08:35;;;;;;;1.50;1.50;;;26.00;99.90;;;26.27;66.72;100694.88;4942185;29;20090;-71
2021/07/25 08:11:04;;;;;;;1.60;1.60;;;26.10;99.90;;;26.32;67.14;100681.88;4941850;29;20052;-71
2021/07/25 08:13:34;;;;;;;1.40;1.40;;;26.20;99.90;;;26.42;65.66;100691.06;4941773;29;20058;-71
2021/07/25 08:16:03;;;;;;;1.55;1.55;;;26.20;99.90;;;26.37;65.40;100676.97;4941825;29;20054;-71
2021/07/25 08:18:32;;;;;;;2.38;2.28;;;26.30;99.90;;;26.32;63.74;100684.59;4941888;29;20131;-71
2021/07/25 08:21:01;;;;;;;1.70;1.70;;;26.20;99.90;;;26.29;63.42;100699.22;4941897;29;20048;-71
2021/07/25 08:23:33;;;;;;;3.17;3.00;;;26.10;99.90;;;26.19;64.09;100694.59;4939698;29;20405;-71
2021/07/25 08:26:01;;;;;;;1.40;1.40;;;26.00;99.90;;;26.14;65.00;100688.59;4938767;29;20075;-71
2021/07/25 08:28:30;;;;;;;1.60;1.60;;;25.90;99.90;;;25.95;64.56;100667.34;4938741;29;20059;-72
2021/07/25 08:31:00;;;;;;;1.85;1.75;;;25.90;99.90;;;26.04;63.57;100696.50;4938779;29;20520;-71
2021/07/25 08:33:29;;;;;;;2.13;2.03;;;25.80;99.90;;;26.05;63.66;100694.66;4938602;29;20044;-71
2021/07/25 08:35:57;;;;;;;1.77;1.73;;;25.80;99.90;;;25.97;62.71;100702.47;4921554;29;20056;-71
2021/07/25 08:38:26;;;;;;;1.40;1.40;;;25.70;99.90;;;26.04;63.64;100704.63;4938230;29;20044;-71
2021/07/25 08:41:11;;;;;;;1.73;1.73;;;25.80;99.90;;;25.89;63.58;100690.34;4938466;29;20099;-71
2021/07/25 08:43:43;;;;;;;1.60;1.60;;;25.80;99.90;;;26.08;63.99;100710.72;4938241;29;20039;-71
2021/07/25 08:46:18;;;;;;;1.70;1.70;;;25.80;99.90;;;25.98;64.51;100680.66;4938540;29;20051;-72
2021/07/25 08:48:49;;;;;;;1.73;1.73;;;25.90;99.90;;;26.09;63.52;100688.06;4938737;29;20056;-71
2021/07/25 08:51:19;;;;;;;1.67;1.67;;;26.00;99.90;;;26.26;63.63;100710.31;4938417;29;20051;-71
2021/07/25 08:54:04;;;;;;;1.80;1.80;;;26.00;99.90;;;26.26;63.52;100713.03;4938172;29;20099;-71
2021/07/25 08:56:35;;;;;;;1.60;1.60;;;26.10;99.90;;;26.22;65.04;100724.19;4937931;29;20043;-71
2021/07/25 08:59:06;;;;;;;1.70;1.70;;;26.00;99.90;;;26.34;65.46;100712.47;4920769;29;20074;-71
2021/07/25 09:01:38;;;;;;;1.50;1.50;;;26.10;99.90;;;26.40;64.69;100718.28;4937737;29;20047;-70
2021/07/25 09:04:09;;;;;;;1.60;1.60;;;26.20;99.90;;;26.32;63.91;100704.44;4937769;29;20056;-71
2021/07/25 09:06:45;;;;;;;4.57;3.60;;;26.20;99.90;;;26.44;64.49;100714.38;4937788;29;20048;-71
2021/07/25 09:09:17;;;;;;;4.10;3.80;;;26.20;99.90;;;26.38;62.80;100697.69;4937888;29;20110;-71
2021/07/25 09:11:48;;;;;;;1.60;1.60;;;26.20;99.90;;;26.54;62.60;100715.47;4938043;29;20127;-71
2021/07/25 09:14:18;;;;;;;2.33;2.22;;;26.30;99.90;;;26.72;62.68;100719.59;4937698;29;20131;-71
2021/07/25 09:16:51;;;;;;;1.98;1.88;;;26.50;99.90;;;26.72;61.01;100724.13;4937893;29;20095;-71
2021/07/25 09:19:20;;;;;;;1.80;1.70;;;26.50;99.90;;;26.87;61.62;100723.00;4937629;29;20058;-71
2021/07/25 09:21:51;;;;;;;1.88;1.80;;;26.60;99.90;;;27.01;58.88;100725.56;4920490;29;20450;-71
2021/07/25 09:24:26;;;;;;;2.53;2.42;;;26.80;99.90;;;27.00;56.44;100732.00;4937622;29;20071;-71
2021/07/25 09:27:01;;;;;;;2.22;2.10;;;26.80;99.90;;;27.00;59.65;100722.97;4937217;29;20123;-71
2021/07/25 09:29:33;;;;;;;1.45;1.45;;;26.80;99.90;;;26.95;60.04;100709.72;4937249;29;20044;-71
2021/07/25 09:32:13;;;;;;;2.38;2.28;;;26.90;99.90;;;27.17;59.97;100722.56;4937501;29;20060;-71
2021/07/25 09:34:43;;;;;;;1.75;1.70;;;27.00;99.90;;;27.20;59.95;100717.75;4937621;29;20118;-71
2021/07/25 09:37:14;;;;;;;1.50;1.50;;;27.10;99.90;;;27.46;59.56;100735.72;4937619;29;20063;-71
2021/07/25 09:39:45;;;;;;;1.42;1.42;;;27.30;99.90;;;27.57;58.44;100729.44;4937443;29;20043;-71
2021/07/25 09:42:15;;;;;;;1.55;1.55;;;27.40;99.90;;;27.63;58.03;100735.28;4920284;29;20486;-71
2021/07/25 09:44:52;;;;;;;1.30;1.30;;;27.50;99.90;;;27.60;54.94;100730.06;4937078;29;20052;-70
2021/07/25 09:47:33;;;;;;;1.52;1.52;;;27.40;99.90;;;27.75;55.19;100743.47;4937382;29;20055;-71
2021/07/25 09:50:05;;;;;;;1.30;1.30;;;27.50;99.90;;;27.36;55.22;100664.03;4937007;29;20537;-71
2021/07/25 09:52:36;;;;;;;1.50;1.50;;;27.60;99.90;;;27.88;55.20;100738.81;4937172;29;20063;-71
2021/07/25 09:55:08;;;;;;;1.30;1.30;;;27.70;99.90;;;27.95;54.87;100742.84;4936965;29;20505;-71
2021/07/25 09:57:38;;;;;;;1.48;1.48;;;27.70;99.90;;;28.01;55.35;100743.19;4937193;29;20047;-71
2021/07/25 10:00:12;;;;;;;1.27;1.27;;;27.80;99.90;;;28.07;54.54;100745.44;4937033;29;20099;-70
2021/07/25 10:02:45;;;;;;;1.30;1.30;;;27.90;99.90;;;28.17;54.91;100745.56;4937120;29;20549;-70
2021/07/25 10:05:16;;;;;;;1.35;1.35;;;28.00;99.90;;;28.30;53.63;100744.47;4936812;29;20405;-71
2021/07/25 10:07:46;;;;;;;;;;;28.10;99.90;;;28.38;53.17;100738.41;4937537;29;20131;-71
2021/07/25 10:10:18;;;;;;;1.38;1.38;;;28.20;99.90;;;28.08;51.43;100675.59;4936733;29;19954;-71
2021/07/25 10:12:47;;;;;;;1.30;1.30;;;28.30;99.90;;;28.59;52.11;100735.88;4936780;29;20040;-70
2021/07/25 10:15:17;;;;;;;1.23;1.23;;;28.40;99.90;;;28.74;51.56;100732.75;4937046;29;20462;-70
2021/07/25 10:17:48;;;;;;;0.98;0.98;;;28.50;99.90;;;28.83;50.67;100729.28;4936854;29;20051;-71
2021/07/25 10:20:16;;;;;;;;;;;28.60;99.90;;;28.97;48.72;100756.25;4937160;29;20039;-72
2021/07/25 10:22:50;;;;;;;1.38;1.38;;;28.80;99.90;;;29.05;50.08;100731.97;4919632;29;19945;-71
2021/07/25 10:25:22;;;;;;;2.20;2.10;;;28.90;99.90;;;28.99;48.54;100726.16;4936419;29;20051;-71